createdAt,value
2018-11-06T00:02:20.309Z,50.10
2018-11-06T00:04:57.129Z,50.10
2018-11-06T00:07:29.710Z,49.50
2018-11-06T00:10:01.469Z,50.40
2018-11-06T00:12:33.089Z,50.90
2018-11-06T00:15:04.909Z,51.20
2018-11-06T00:17:37.289Z,51.10
2018-11-06T00:20:11.689Z,51.00
2018-11-06T00:22:43.648Z,50.70
2018-11-06T00:25:15.709Z,50.70
2018-11-06T00:27:47.270Z,50.40
2018-11-06T00:30:19.069Z,50.70
2018-11-06T00:32:50.969Z,50.30
2018-11-06T00:35:22.709Z,50.60
2018-11-06T00:37:55.109Z,50.50
2018-11-06T00:40:27.589Z,50.20
2018-11-06T00:43:00.010Z,50.20
2018-11-06T00:45:31.569Z,50.10
2018-11-06T00:48:03.529Z,49.90
2018-11-06T00:50:35.868Z,50.20
2018-11-06T00:53:07.911Z,49.90
2018-11-06T00:55:39.029Z,49.80
2018-11-06T00:58:10.809Z,49.50
2018-11-06T01:00:42.309Z,49.80
2018-11-06T01:03:13.488Z,49.80
2018-11-06T01:05:45.689Z,49.80
2018-11-06T01:08:17.269Z,49.70
2018-11-06T01:10:48.848Z,49.70
2018-11-06T01:13:20.488Z,49.70
2018-11-06T01:15:51.599Z,49.80
2018-11-06T01:18:23.769Z,50.10
2018-11-06T01:20:56.289Z,49.90
2018-11-06T01:23:27.789Z,49.70
2018-11-06T01:25:59.729Z,49.50
2018-11-06T01:28:31.189Z,49.50
2018-11-06T01:31:03.269Z,49.20
2018-11-06T01:33:34.589Z,49.20
2018-11-06T01:36:06.469Z,49.20
2018-11-06T01:38:38.309Z,49.20
2018-11-06T01:41:09.808Z,49.20
2018-11-06T01:43:41.589Z,49.00
2018-11-06T01:46:13.931Z,48.70
2018-11-06T01:48:45.908Z,48.60
2018-11-06T01:51:18.108Z,48.70
2018-11-06T01:53:50.388Z,48.80
2018-11-06T01:56:22.269Z,48.40
2018-11-06T01:58:54.533Z,48.40
2018-11-06T02:01:26.529Z,48.40
2018-11-06T02:03:58.728Z,48.20
2018-11-06T02:06:30.209Z,48.20
2018-11-06T02:09:02.388Z,48.30
2018-11-06T02:11:34.089Z,48.40
2018-11-06T02:14:05.229Z,48.50
2018-11-06T02:16:37.669Z,48.60
2018-11-06T02:19:08.908Z,48.30
2018-11-06T02:21:40.809Z,48.30
2018-11-06T02:24:11.849Z,48.30
2018-11-06T02:26:43.829Z,48.20
2018-11-06T02:29:15.889Z,48.70
2018-11-06T02:31:47.270Z,48.30
2018-11-06T02:34:19.229Z,48.40
2018-11-06T02:36:50.768Z,48.30
2018-11-06T02:39:22.368Z,48.00
2018-11-06T02:41:53.849Z,48.00
2018-11-06T02:44:26.170Z,48.30
2018-11-06T02:46:58.576Z,48.20
2018-11-06T02:49:30.449Z,48.20
2018-11-06T02:52:03.228Z,48.20
2018-11-06T02:54:34.429Z,48.00
2018-11-06T02:57:06.828Z,48.30
2018-11-06T02:59:39.129Z,48.20
2018-11-06T03:02:10.769Z,48.10
2018-11-06T03:04:42.549Z,48.10
2018-11-06T03:07:14.369Z,48.70
2018-11-06T03:09:46.668Z,48.10
2018-11-06T03:12:18.712Z,48.00
2018-11-06T03:14:50.589Z,48.00
2018-11-06T03:17:22.348Z,47.60
2018-11-06T03:19:54.209Z,48.00
2018-11-06T03:22:25.728Z,48.10
2018-11-06T03:24:57.229Z,48.10
2018-11-06T03:27:28.889Z,48.60
2018-11-06T03:30:00.671Z,48.20
2018-11-06T03:32:32.109Z,48.10
2018-11-06T03:35:03.829Z,48.10
2018-11-06T03:37:36.032Z,48.40
2018-11-06T03:40:08.692Z,48.20
2018-11-06T03:42:41.708Z,48.10
2018-11-06T03:45:14.349Z,48.10
2018-11-06T03:47:46.289Z,48.00
2018-11-06T03:50:18.249Z,47.70
2018-11-06T03:52:50.029Z,47.90
2018-11-06T03:55:22.568Z,47.70
2018-11-06T03:57:54.609Z,47.80
2018-11-06T04:00:26.230Z,47.80
2018-11-06T04:02:58.469Z,47.90
2018-11-06T04:05:30.029Z,48.00
2018-11-06T04:08:01.649Z,47.90
2018-11-06T04:10:33.612Z,48.30
2018-11-06T04:13:06.489Z,48.00
2018-11-06T04:15:38.509Z,47.50
2018-11-06T04:18:10.149Z,47.50
2018-11-06T04:20:41.669Z,47.60
2018-11-06T04:23:14.068Z,47.50
2018-11-06T04:25:46.409Z,47.40
2018-11-06T04:28:18.349Z,47.30
2018-11-06T04:30:50.309Z,47.00
2018-11-06T04:33:22.489Z,47.00
2018-11-06T04:35:53.649Z,46.80
2018-11-06T04:38:26.789Z,46.80
2018-11-06T04:40:58.929Z,46.70
2018-11-06T04:43:31.029Z,46.70
2018-11-06T04:46:02.671Z,46.60
2018-11-06T04:48:34.010Z,46.50
2018-11-06T04:51:06.169Z,46.70
2018-11-06T04:53:38.350Z,46.50
2018-11-06T04:56:10.300Z,46.60
2018-11-06T04:58:41.769Z,46.70
2018-11-06T05:01:14.190Z,46.70
2018-11-06T05:03:47.869Z,46.60
2018-11-06T05:06:20.349Z,46.10
2018-11-06T05:08:52.329Z,46.00
2018-11-06T05:11:24.570Z,46.00
2018-11-06T05:13:56.650Z,46.00
2018-11-06T05:16:28.649Z,45.80
2018-11-06T05:19:00.669Z,45.80
2018-11-06T05:21:32.169Z,45.50
2018-11-06T05:24:05.049Z,45.40
2018-11-06T05:26:36.469Z,45.30
2018-11-06T05:29:09.269Z,45.50
2018-11-06T05:31:40.730Z,45.40
2018-11-06T05:34:13.149Z,45.50
2018-11-06T05:36:44.811Z,45.50
2018-11-06T05:39:17.045Z,45.70
2018-11-06T05:41:49.089Z,45.80
2018-11-06T05:44:20.910Z,45.90
2018-11-06T05:46:52.329Z,45.80
2018-11-06T05:49:24.449Z,45.80
2018-11-06T05:51:56.449Z,45.90
2018-11-06T05:54:29.369Z,45.80
2018-11-06T05:57:01.649Z,45.90
2018-11-06T05:59:33.389Z,46.00
2018-11-06T06:02:05.429Z,45.70
2018-11-06T06:04:37.453Z,46.00
2018-11-06T06:07:09.589Z,45.80
2018-11-06T06:09:41.589Z,45.80
2018-11-06T06:12:13.349Z,45.90
2018-11-06T06:14:44.829Z,45.70
2018-11-06T06:17:16.804Z,45.70
2018-11-06T06:19:49.489Z,45.80
2018-11-06T06:22:21.242Z,45.30
2018-11-06T06:24:54.609Z,45.70
2018-11-06T06:27:26.688Z,45.60
2018-11-06T06:29:58.310Z,45.40
2018-11-06T06:32:30.569Z,50.10
2018-11-06T06:35:02.097Z,45.80
2018-11-06T06:37:33.909Z,45.10
2018-11-06T06:40:06.873Z,45.00
2018-11-06T06:42:39.212Z,44.90
2018-11-06T06:45:15.049Z,44.50
2018-11-06T06:47:46.868Z,44.70
2018-11-06T06:50:20.988Z,44.90
2018-11-06T06:52:52.809Z,45.00
2018-11-06T06:55:25.169Z,45.30
2018-11-06T06:57:57.109Z,45.30
2018-11-06T07:00:29.369Z,45.40
2018-11-06T07:03:01.709Z,45.60
2018-11-06T07:05:33.048Z,45.80
2018-11-06T07:08:04.849Z,45.80
2018-11-06T07:10:36.608Z,45.60
2018-11-06T07:13:09.087Z,45.60
2018-11-06T07:15:41.289Z,45.30
2018-11-06T07:18:14.128Z,45.10
2018-11-06T07:20:45.768Z,45.20
2018-11-06T07:23:18.228Z,45.40
2018-11-06T07:25:49.568Z,45.40
2018-11-06T07:28:21.628Z,45.40
2018-11-06T07:30:54.229Z,45.50
2018-11-06T07:33:25.590Z,45.40
2018-11-06T07:35:58.569Z,45.60
2018-11-06T07:38:30.389Z,45.50
2018-11-06T07:41:02.516Z,45.40
2018-11-06T07:43:33.789Z,45.60
2018-11-06T07:46:05.831Z,45.50
2018-11-06T07:48:37.308Z,45.50
2018-11-06T07:51:09.449Z,45.40
2018-11-06T07:53:40.948Z,45.30
2018-11-06T07:56:12.914Z,45.20
2018-11-06T07:58:44.767Z,44.80
2018-11-06T08:01:16.411Z,45.00
2018-11-06T08:03:48.110Z,44.80
2018-11-06T08:06:19.943Z,44.50
2018-11-06T08:08:51.688Z,44.80
2018-11-06T08:11:23.948Z,44.70
2018-11-06T08:13:55.448Z,45.20
2018-11-06T08:16:26.048Z,44.50
2018-11-06T08:18:57.034Z,44.30
2018-11-06T08:21:28.693Z,44.30
2018-11-06T08:23:59.922Z,44.50
2018-11-06T08:26:31.190Z,44.20
2018-11-06T08:29:03.232Z,44.20
2018-11-06T08:31:35.380Z,44.00
2018-11-06T08:34:06.686Z,44.10
2018-11-06T08:36:38.712Z,44.20
2018-11-06T08:39:12.125Z,44.10
2018-11-06T08:41:43.826Z,44.00
2018-11-06T08:44:15.906Z,44.30
2018-11-06T08:46:47.834Z,44.20
2018-11-06T08:49:19.016Z,44.10
2018-11-06T08:51:50.154Z,44.40
2018-11-06T08:54:22.104Z,44.60
2018-11-06T08:56:54.179Z,44.70
2018-11-06T08:59:25.892Z,44.60
2018-11-06T09:01:57.423Z,44.50
2018-11-06T09:04:29.542Z,44.50
2018-11-06T09:07:01.150Z,44.50
2018-11-06T09:09:32.282Z,45.00
2018-11-06T09:12:04.230Z,44.50
2018-11-06T09:14:36.206Z,44.40
2018-11-06T09:17:08.487Z,44.20
2018-11-06T09:19:40.598Z,44.30
2018-11-06T09:22:13.034Z,44.00
2018-11-06T09:24:45.257Z,43.90
2018-11-06T09:27:17.767Z,44.20
2018-11-06T09:29:49.752Z,44.60
2018-11-06T09:32:21.653Z,44.50
2018-11-06T09:34:54.227Z,44.60
2018-11-06T09:37:25.888Z,44.00
2018-11-06T09:39:58.862Z,43.90
2018-11-06T09:42:30.612Z,44.20
2018-11-06T09:45:02.784Z,43.80
2018-11-06T09:47:34.736Z,43.50
2018-11-06T09:50:06.949Z,43.20
2018-11-06T09:52:38.862Z,43.50
2018-11-06T09:55:10.330Z,43.40
2018-11-06T09:57:42.206Z,43.60
2018-11-06T10:00:17.140Z,43.60
2018-11-06T10:02:49.000Z,43.30
2018-11-06T10:05:21.077Z,43.10
2018-11-06T10:07:53.153Z,42.80
2018-11-06T10:10:24.661Z,42.10
2018-11-06T10:12:55.904Z,42.40
2018-11-06T10:15:27.816Z,42.40
2018-11-06T10:18:00.785Z,43.20
2018-11-06T10:20:32.464Z,42.60
2018-11-06T10:23:04.176Z,42.60
2018-11-06T10:25:35.676Z,42.20
2018-11-06T10:28:06.403Z,42.40
2018-11-06T10:30:38.133Z,42.80
2018-11-06T10:33:09.455Z,42.90
2018-11-06T10:35:41.487Z,43.40
2018-11-06T10:38:13.222Z,42.80
2018-11-06T10:40:46.047Z,42.70
2018-11-06T10:43:17.007Z,41.70
2018-11-06T10:45:48.446Z,42.20
2018-11-06T10:48:20.449Z,42.00
2018-11-06T10:50:52.788Z,42.60
2018-11-06T10:53:24.648Z,42.40
2018-11-06T10:55:56.927Z,42.40
2018-11-06T10:58:28.069Z,42.30
2018-11-06T11:01:04.688Z,42.10
2018-11-06T11:03:41.813Z,42.10
2018-11-06T11:06:12.963Z,41.80
2018-11-06T11:08:43.479Z,42.10
2018-11-06T11:11:16.703Z,41.70
2018-11-06T11:13:49.218Z,41.90
2018-11-06T11:16:21.059Z,41.80
2018-11-06T11:18:53.159Z,41.50
2018-11-06T11:21:24.633Z,41.70
2018-11-06T11:23:57.520Z,42.00
2018-11-06T11:26:29.085Z,41.80
2018-11-06T11:29:01.199Z,42.10
2018-11-06T11:31:33.174Z,42.20
2018-11-06T11:34:05.412Z,42.60
2018-11-06T11:36:37.403Z,42.20
2018-11-06T11:39:10.931Z,42.10
2018-11-06T11:41:43.298Z,42.40
2018-11-06T11:44:14.563Z,42.40
2018-11-06T11:46:46.644Z,42.10
2018-11-06T11:49:18.264Z,42.10
2018-11-06T11:51:50.784Z,42.20
2018-11-06T11:54:22.696Z,42.30
2018-11-06T11:56:54.476Z,42.40
2018-11-06T11:59:25.978Z,41.80
2018-11-06T12:01:57.800Z,42.30
2018-11-06T12:04:31.056Z,41.90
2018-11-06T12:07:03.456Z,42.10
2018-11-06T12:09:36.776Z,42.10
2018-11-06T12:12:08.496Z,41.80
2018-11-06T12:14:40.617Z,41.80
2018-11-06T12:17:11.810Z,41.80
2018-11-06T12:19:44.637Z,41.80
2018-11-06T12:22:16.076Z,41.70
2018-11-06T12:24:48.387Z,41.70
2018-11-06T12:27:20.049Z,41.70
2018-11-06T12:29:51.848Z,41.90
2018-11-06T12:32:24.117Z,41.80
2018-11-06T12:34:56.408Z,41.70
2018-11-06T12:37:28.309Z,41.50
2018-11-06T12:40:00.428Z,41.30
2018-11-06T12:42:32.849Z,41.40
2018-11-06T12:45:04.653Z,40.70
2018-11-06T12:47:37.008Z,40.70
2018-11-06T12:50:09.775Z,40.60
2018-11-06T12:52:41.159Z,40.30
2018-11-06T12:55:15.316Z,40.60
2018-11-06T12:57:47.553Z,40.00
2018-11-06T13:00:19.990Z,40.20
2018-11-06T13:02:51.933Z,39.70
2018-11-06T13:05:23.743Z,40.20
2018-11-06T13:07:55.804Z,39.80
2018-11-06T13:10:26.743Z,40.50
2018-11-06T13:12:58.724Z,40.50
2018-11-06T13:15:31.394Z,41.70
2018-11-06T13:18:03.567Z,40.40
2018-11-06T13:20:35.223Z,40.60
2018-11-06T13:23:07.940Z,41.60
2018-11-06T13:25:39.761Z,41.80
2018-11-06T13:28:11.564Z,41.80
2018-11-06T13:30:43.567Z,41.60
2018-11-06T13:33:14.931Z,41.30
2018-11-06T13:35:46.071Z,40.80
2018-11-06T13:38:17.372Z,40.90
2018-11-06T13:40:49.432Z,40.50
2018-11-06T13:43:21.234Z,40.40
2018-11-06T13:45:53.683Z,40.50
2018-11-06T13:48:25.800Z,42.40
2018-11-06T13:50:56.978Z,40.80
2018-11-06T13:53:29.151Z,41.00
2018-11-06T13:56:01.651Z,40.70
2018-11-06T13:58:33.552Z,40.50
2018-11-06T14:01:05.415Z,40.40
2018-11-06T14:03:37.406Z,40.50
2018-11-06T14:06:08.816Z,41.00
2018-11-06T14:08:40.776Z,40.50
2018-11-06T14:11:12.438Z,40.60
2018-11-06T14:13:43.720Z,40.90
2018-11-06T14:16:15.137Z,40.60
2018-11-06T14:18:47.756Z,40.80
2018-11-06T14:21:19.537Z,41.10
2018-11-06T14:23:51.585Z,41.30
2018-11-06T14:26:23.277Z,40.80
2018-11-06T14:28:54.306Z,41.30
2018-11-06T14:31:26.785Z,41.10
2018-11-06T14:33:58.083Z,41.10
2018-11-06T14:36:29.318Z,41.30
2018-11-06T14:39:01.458Z,40.80
2018-11-06T14:41:33.064Z,40.60
2018-11-06T14:44:04.842Z,41.10
2018-11-06T14:46:36.811Z,41.20
2018-11-06T14:49:08.245Z,41.60
2018-11-06T14:51:40.120Z,41.50
2018-11-06T14:54:12.835Z,41.60
2018-11-06T14:56:44.912Z,41.00
2018-11-06T14:59:17.611Z,41.30
2018-11-06T15:01:49.811Z,41.70
2018-11-06T15:04:21.257Z,41.00
2018-11-06T15:06:54.174Z,40.90
2018-11-06T15:09:25.731Z,41.40
2018-11-06T15:11:58.550Z,41.70
2018-11-06T15:14:30.200Z,41.10
2018-11-06T15:17:04.401Z,40.90
2018-11-06T15:19:36.750Z,40.70
2018-11-06T15:22:08.363Z,41.20
2018-11-06T15:24:40.228Z,42.20
2018-11-06T15:27:12.227Z,42.80
2018-11-06T15:29:43.928Z,43.80
2018-11-06T15:32:16.249Z,43.90
2018-11-06T15:34:47.867Z,43.60
2018-11-06T15:37:20.788Z,42.30
2018-11-06T15:39:52.849Z,42.70
2018-11-06T15:42:24.448Z,42.70
2018-11-06T15:44:56.687Z,43.20
2018-11-06T15:47:29.009Z,42.00
2018-11-06T15:50:00.847Z,41.50
2018-11-06T15:52:32.817Z,42.10
2018-11-06T15:55:04.935Z,42.90
2018-11-06T15:57:36.847Z,42.40
2018-11-06T16:00:12.248Z,42.00
2018-11-06T16:02:44.447Z,42.00
2018-11-06T16:05:15.868Z,41.90
2018-11-06T16:07:48.027Z,42.40
2018-11-06T16:10:21.586Z,41.90
2018-11-06T16:12:54.008Z,41.80
2018-11-06T16:15:25.513Z,42.10
2018-11-06T16:17:58.667Z,41.80
2018-11-06T16:20:29.968Z,42.00
2018-11-06T16:23:02.007Z,44.90
2018-11-06T16:25:33.368Z,47.60
2018-11-06T16:28:05.378Z,49.30
2018-11-06T16:30:37.007Z,51.50
2018-11-06T16:33:09.010Z,53.10
2018-11-06T16:35:41.011Z,53.00
2018-11-06T16:38:13.149Z,53.80
2018-11-06T16:40:44.667Z,53.90
2018-11-06T16:43:16.487Z,53.90
2018-11-06T16:45:48.968Z,54.00
2018-11-06T16:48:21.806Z,54.00
2018-11-06T16:50:54.226Z,54.00
2018-11-06T16:53:26.127Z,54.00
2018-11-06T16:55:57.546Z,55.10
2018-11-06T16:58:29.926Z,55.20
2018-11-06T17:01:03.186Z,55.70
2018-11-06T17:03:34.786Z,56.50
2018-11-06T17:06:07.407Z,56.00
2018-11-06T17:08:39.267Z,56.10
2018-11-06T17:11:11.526Z,56.20
2018-11-06T17:13:44.046Z,56.20
2018-11-06T17:16:16.186Z,56.30
2018-11-06T17:18:49.326Z,56.90
2018-11-06T17:21:20.628Z,56.90
2018-11-06T17:23:53.407Z,57.10
2018-11-06T17:26:25.588Z,57.10
2018-11-06T17:28:58.126Z,57.40
2018-11-06T17:31:30.608Z,57.70
2018-11-06T17:34:03.387Z,58.00
2018-11-06T17:36:35.366Z,58.50
2018-11-06T17:39:09.289Z,58.10
2018-11-06T17:41:41.267Z,58.10
2018-11-06T17:44:13.248Z,58.10
2018-11-06T17:46:45.427Z,58.10
2018-11-06T17:49:18.237Z,58.10
2018-11-06T17:51:50.266Z,58.30
2018-11-06T17:54:21.566Z,58.20
2018-11-06T17:56:53.570Z,58.40
2018-11-06T17:59:25.687Z,58.50
2018-11-06T18:01:58.328Z,58.80
2018-11-06T18:04:29.203Z,58.70
2018-11-06T18:07:01.347Z,58.70
2018-11-06T18:09:33.466Z,58.60
2018-11-06T18:12:04.768Z,59.00
2018-11-06T18:14:37.346Z,59.00
2018-11-06T18:17:10.322Z,59.50
2018-11-06T18:19:42.227Z,59.20
2018-11-06T18:22:14.267Z,59.30
2018-11-06T18:24:45.584Z,59.30
2018-11-06T18:27:18.226Z,59.20
2018-11-06T18:29:50.487Z,59.40
2018-11-06T18:32:23.122Z,59.20
2018-11-06T18:34:54.867Z,59.30
2018-11-06T18:37:27.588Z,59.40
2018-11-06T18:39:59.947Z,59.90
2018-11-06T18:42:32.767Z,60.20
2018-11-06T18:45:05.267Z,60.50
2018-11-06T18:47:38.303Z,60.50
2018-11-06T18:50:11.647Z,60.50
2018-11-06T18:52:45.126Z,60.60
2018-11-06T18:55:18.489Z,60.70
2018-11-06T18:57:50.887Z,60.40
2018-11-06T19:00:24.127Z,59.90
2018-11-06T19:02:56.887Z,60.20
2018-11-06T19:05:28.746Z,60.50
2018-11-06T19:08:01.228Z,60.50
2018-11-06T19:10:32.999Z,60.90
2018-11-06T19:13:05.748Z,60.80
2018-11-06T19:15:38.089Z,60.80
2018-11-06T19:18:10.227Z,61.00
2018-11-06T19:20:42.527Z,60.80
2018-11-06T19:23:14.367Z,60.80
2018-11-06T19:25:46.970Z,60.40
2018-11-06T19:28:19.627Z,61.00
2018-11-06T19:30:51.708Z,60.40
2018-11-06T19:33:25.587Z,60.50
2018-11-06T19:35:57.689Z,60.50
2018-11-06T19:38:30.268Z,60.70
2018-11-06T19:41:00.646Z,60.50
2018-11-06T19:43:32.847Z,59.80
2018-11-06T19:46:05.088Z,59.90
2018-11-06T19:48:36.843Z,59.90
2018-11-06T19:51:08.648Z,60.00
2018-11-06T19:53:41.675Z,59.90
2018-11-06T19:56:13.689Z,60.00
2018-11-06T19:58:46.848Z,59.90
2018-11-06T20:01:20.987Z,59.80
2018-11-06T20:03:54.009Z,59.80
2018-11-06T20:06:25.869Z,59.90
2018-11-06T20:08:58.508Z,59.90
2018-11-06T20:11:31.531Z,60.20
2018-11-06T20:14:04.527Z,60.10
2018-11-06T20:16:37.346Z,59.90
2018-11-06T20:19:09.527Z,59.90
2018-11-06T20:21:41.587Z,59.80
2018-11-06T20:24:14.523Z,59.70
2018-11-06T20:26:46.747Z,60.10
2018-11-06T20:29:19.766Z,60.30
2018-11-06T20:31:52.746Z,60.50
2018-11-06T20:34:24.790Z,60.60
2018-11-06T20:36:58.267Z,60.70
2018-11-06T20:39:30.427Z,61.00
2018-11-06T20:42:03.669Z,61.50
2018-11-06T20:44:35.367Z,61.30
2018-11-06T20:47:08.348Z,61.50
2018-11-06T20:49:39.955Z,61.40
2018-11-06T20:52:11.827Z,61.40
2018-11-06T20:54:43.566Z,61.40
2018-11-06T20:57:16.627Z,61.50
2018-11-06T20:59:48.575Z,61.60
2018-11-06T21:02:20.566Z,61.30
2018-11-06T21:04:52.327Z,61.60
2018-11-06T21:07:24.850Z,62.00
2018-11-06T21:09:56.707Z,62.20
2018-11-06T21:12:29.987Z,62.60
2018-11-06T21:15:01.547Z,62.70
2018-11-06T21:17:34.581Z,63.10
2018-11-06T21:20:07.059Z,63.20
2018-11-06T21:22:38.887Z,63.20
2018-11-06T21:25:11.590Z,63.50
2018-11-06T21:27:44.926Z,63.50
2018-11-06T21:30:21.188Z,63.60
2018-11-06T21:32:54.387Z,63.80
2018-11-06T21:35:26.748Z,63.70
2018-11-06T21:37:58.587Z,63.90
2018-11-06T21:40:30.729Z,64.10
2018-11-06T21:43:02.968Z,64.00
2018-11-06T21:45:34.671Z,64.20
2018-11-06T21:48:06.828Z,64.30
2018-11-06T21:50:38.546Z,64.30
2018-11-06T21:53:11.347Z,64.80
2018-11-06T21:55:42.847Z,64.20
2018-11-06T21:58:15.448Z,64.50
2018-11-06T22:00:47.756Z,64.30
2018-11-06T22:03:19.848Z,64.50
2018-11-06T22:05:51.808Z,64.70
2018-11-06T22:08:23.687Z,64.70
2018-11-06T22:10:54.807Z,64.60
2018-11-06T22:13:26.407Z,64.90
2018-11-06T22:15:59.029Z,64.80
2018-11-06T22:18:30.547Z,64.80
2018-11-06T22:21:02.646Z,64.70
2018-11-06T22:23:35.047Z,64.60
2018-11-06T22:26:07.628Z,64.60
2018-11-06T22:28:40.466Z,64.50
2018-11-06T22:31:12.392Z,64.40
2018-11-06T22:33:44.907Z,64.60
2018-11-06T22:36:16.748Z,64.90
2018-11-06T22:38:48.468Z,65.20
2018-11-06T22:41:20.726Z,65.20
2018-11-06T22:43:52.647Z,65.10
2018-11-06T22:46:24.066Z,65.00
2018-11-06T22:48:55.907Z,64.80
2018-11-06T22:51:27.947Z,64.80
2018-11-06T22:53:59.608Z,64.90
2018-11-06T22:56:31.567Z,65.00
2018-11-06T22:59:03.787Z,65.00
2018-11-06T23:01:37.746Z,64.90
2018-11-06T23:04:09.627Z,64.80
2018-11-06T23:06:42.142Z,65.10
2018-11-06T23:09:14.447Z,66.10
2018-11-06T23:11:46.866Z,65.40
2018-11-06T23:14:18.368Z,65.80
2018-11-06T23:16:51.028Z,66.00
2018-11-06T23:19:23.108Z,66.00
2018-11-06T23:21:55.047Z,66.20
2018-11-06T23:24:27.595Z,66.30
2018-11-06T23:26:59.387Z,66.50
2018-11-06T23:29:32.208Z,66.70
2018-11-06T23:32:04.632Z,66.80
2018-11-06T23:34:36.708Z,66.90
2018-11-06T23:37:08.706Z,67.20
2018-11-06T23:39:40.720Z,67.30
2018-11-06T23:42:13.722Z,67.40
2018-11-06T23:44:45.508Z,67.60
2018-11-06T23:47:17.826Z,67.90
2018-11-06T23:49:50.046Z,68.00
2018-11-06T23:52:22.047Z,68.20
2018-11-06T23:54:54.767Z,68.40
2018-11-06T23:57:26.348Z,68.60
2018-11-06T23:59:58.906Z,68.70
